createdAt,value
2022-09-06T00:01:11.659Z,-61
2022-09-06T00:03:40.647Z,-61
2022-09-06T00:06:14.780Z,-61
2022-09-06T00:08:45.343Z,-60
2022-09-06T00:11:14.122Z,-63
2022-09-06T00:13:42.532Z,-62
2022-09-06T00:16:14.601Z,-63
2022-09-06T00:18:43.187Z,-61
2022-09-06T00:21:19.184Z,-61
2022-09-06T00:23:47.649Z,-62
2022-09-06T00:26:16.414Z,-62
2022-09-06T00:28:44.965Z,-62
2022-09-06T00:31:15.564Z,-61
2022-09-06T00:33:44.592Z,-62
2022-09-06T00:36:15.409Z,-62
2022-09-06T00:38:44.070Z,-61
2022-09-06T00:41:15.700Z,-63
2022-09-06T00:43:44.522Z,-62
2022-09-06T00:46:18.963Z,-62
2022-09-06T00:48:50.760Z,-61
2022-09-06T00:51:25.449Z,-62
2022-09-06T00:53:53.882Z,-62
2022-09-06T00:56:22.571Z,-62
2022-09-06T00:58:51.403Z,-62
2022-09-06T01:01:19.795Z,-61
2022-09-06T01:03:48.074Z,-62
2022-09-06T01:06:29.213Z,-62
2022-09-06T01:09:11.329Z,-61
2022-09-06T01:12:05.773Z,-61
2022-09-06T01:14:52.468Z,-61
2022-09-06T01:17:34.508Z,-62
2022-09-06T01:20:33.444Z,-62
2022-09-06T01:24:04.369Z,-61
2022-09-06T01:27:36.125Z,-62
2022-09-06T01:30:09.455Z,-61
2022-09-06T01:32:54.706Z,-61
2022-09-06T01:35:34.424Z,-61
2022-09-06T01:38:03.783Z,-61
2022-09-06T01:40:35.666Z,-61
2022-09-06T01:43:10.216Z,-62
2022-09-06T01:45:58.119Z,-62
2022-09-06T01:48:48.381Z,-62
2022-09-06T01:51:27.497Z,-61
2022-09-06T01:54:27.687Z,-62
2022-09-06T01:57:14.527Z,-61
2022-09-06T02:00:02.869Z,-62
2022-09-06T02:02:46.864Z,-62
2022-09-06T02:05:24.385Z,-61
2022-09-06T02:07:59.087Z,-62
2022-09-06T02:10:35.043Z,-62
2022-09-06T02:13:07.386Z,-62
2022-09-06T02:15:39.572Z,-63
2022-09-06T02:18:17.101Z,-62
2022-09-06T02:20:52.654Z,-61
2022-09-06T02:23:27.409Z,-61
2022-09-06T02:26:02.595Z,-61
2022-09-06T02:28:30.798Z,-60
2022-09-06T02:31:04.857Z,-61
2022-09-06T02:33:35.904Z,-62
2022-09-06T02:36:09.598Z,-62
2022-09-06T02:38:41.460Z,-63
2022-09-06T02:41:10.761Z,-61
2022-09-06T02:43:38.841Z,-62
2022-09-06T02:46:07.219Z,-62
2022-09-06T02:48:36.745Z,-63
2022-09-06T02:51:05.686Z,-60
2022-09-06T02:53:34.199Z,-63
2022-09-06T02:56:03.414Z,-64
2022-09-06T02:58:31.445Z,-62
2022-09-06T03:00:59.691Z,-63
2022-09-06T03:03:28.507Z,-62
2022-09-06T03:05:57.977Z,-62
2022-09-06T03:08:29.261Z,-61
2022-09-06T03:10:58.136Z,-62
2022-09-06T03:13:27.040Z,-62
2022-09-06T03:15:57.705Z,-62
2022-09-06T03:18:27.308Z,-63
2022-09-06T03:20:58.058Z,-63
2022-09-06T03:23:28.509Z,-62
2022-09-06T03:25:57.236Z,-61
2022-09-06T03:28:25.744Z,-62
2022-09-06T03:30:54.792Z,-62
2022-09-06T03:33:23.021Z,-60
2022-09-06T03:35:53.949Z,-61
2022-09-06T03:38:24.636Z,-63
2022-09-06T03:40:53.209Z,-62
2022-09-06T03:43:23.460Z,-62
2022-09-06T03:45:54.772Z,-63
2022-09-06T03:48:25.350Z,-62
2022-09-06T03:50:57.803Z,-62
2022-09-06T03:53:29.055Z,-62
2022-09-06T03:55:58.615Z,-62
2022-09-06T03:58:31.168Z,-61
2022-09-06T04:01:07.995Z,-61
2022-09-06T04:03:37.032Z,-61
2022-09-06T04:06:06.821Z,-61
2022-09-06T04:08:38.137Z,-62
2022-09-06T04:11:07.271Z,-62
2022-09-06T04:13:36.719Z,-62
2022-09-06T04:16:06.335Z,-62
2022-09-06T04:18:34.804Z,-62
2022-09-06T04:21:02.982Z,-62
2022-09-06T04:23:33.475Z,-61
2022-09-06T04:26:04.831Z,-61
2022-09-06T04:28:33.079Z,-61
2022-09-06T04:31:05.140Z,-62
2022-09-06T04:33:36.396Z,-60
2022-09-06T04:36:08.185Z,-61
2022-09-06T04:38:39.174Z,-61
2022-09-06T04:41:10.901Z,-61
2022-09-06T04:43:39.114Z,-61
2022-09-06T04:46:10.627Z,-61
2022-09-06T04:48:38.729Z,-62
2022-09-06T04:51:07.261Z,-60
2022-09-06T04:53:35.334Z,-62
2022-09-06T04:56:04.108Z,-62
2022-09-06T04:58:33.694Z,-62
2022-09-06T05:01:01.777Z,-62
2022-09-06T05:03:29.813Z,-62
2022-09-06T05:06:10.003Z,-61
2022-09-06T05:08:39.526Z,-61
2022-09-06T05:11:08.839Z,-61
2022-09-06T05:13:39.283Z,-62
2022-09-06T05:16:09.912Z,-62
2022-09-06T05:18:38.044Z,-65
2022-09-06T05:21:07.561Z,-61
2022-09-06T05:23:35.595Z,-61
2022-09-06T05:26:03.727Z,-61
2022-09-06T05:28:31.991Z,-61
2022-09-06T05:31:09.890Z,-60
2022-09-06T05:33:38.831Z,-65
2022-09-06T05:36:08.622Z,-61
2022-09-06T05:38:36.672Z,-61
2022-09-06T05:41:04.819Z,-61
2022-09-06T05:43:32.836Z,-61
2022-09-06T05:46:01.031Z,-62
2022-09-06T05:48:36.091Z,-61
2022-09-06T05:51:08.256Z,-60
2022-09-06T05:53:37.035Z,-67
2022-09-06T05:56:06.674Z,-67
2022-09-06T05:58:34.748Z,-67
2022-09-06T06:01:08.887Z,-66
2022-09-06T06:03:38.956Z,-66
2022-09-06T06:06:07.685Z,-66
2022-09-06T06:08:36.829Z,-67
2022-09-06T06:11:04.988Z,-66
2022-09-06T06:13:35.000Z,-67
2022-09-06T06:16:04.408Z,-67
2022-09-06T06:18:32.566Z,-67
2022-09-06T06:21:14.186Z,-67
2022-09-06T06:23:44.317Z,-66
2022-09-06T06:26:14.026Z,-67
2022-09-06T06:28:42.344Z,-67
2022-09-06T06:31:13.052Z,-67
2022-09-06T06:33:41.676Z,-67
2022-09-06T06:36:24.376Z,-66
2022-09-06T06:38:55.202Z,-66
2022-09-06T06:41:25.764Z,-67
2022-09-06T06:43:54.521Z,-67
2022-09-06T06:46:24.958Z,-67
2022-09-06T06:48:55.258Z,-66
2022-09-06T06:51:28.287Z,-67
2022-09-06T06:53:57.803Z,-68
2022-09-06T06:56:28.823Z,-68
2022-09-06T06:58:59.625Z,-64
2022-09-06T07:01:30.575Z,-76
2022-09-06T07:04:00.436Z,-70
2022-09-06T07:09:21.152Z,-69
2022-09-06T07:11:49.910Z,-70
2022-09-06T07:14:19.086Z,-69
2022-09-06T07:16:47.219Z,-71
2022-09-06T07:22:05.882Z,-64
2022-09-06T07:24:34.878Z,-71
2022-09-06T07:29:51.010Z,-69
2022-09-06T07:32:19.003Z,-67
2022-09-06T07:34:47.169Z,-66
2022-09-06T07:37:16.676Z,-66
2022-09-06T07:39:44.755Z,-67
2022-09-06T07:42:12.767Z,-63
2022-09-06T07:44:40.799Z,-63
2022-09-06T07:55:35.718Z,-65
2022-09-06T07:58:03.744Z,-67
2022-09-06T08:00:31.889Z,-65
2022-09-06T08:03:00.257Z,-65
2022-09-06T08:11:07.499Z,-64
2022-09-06T08:13:36.382Z,-66
2022-09-06T08:16:07.092Z,-66
2022-09-06T08:18:36.500Z,-63
2022-09-06T08:21:12.734Z,-64
2022-09-06T08:23:47.212Z,-63
2022-09-06T08:26:16.097Z,-62
2022-09-06T08:28:44.395Z,-62
2022-09-06T08:31:14.770Z,-62
2022-09-06T08:33:44.017Z,-62
2022-09-06T08:36:12.751Z,-62
2022-09-06T08:38:42.460Z,-63
2022-09-06T08:41:20.101Z,-65
2022-09-06T08:46:53.155Z,-64
2022-09-06T08:49:21.751Z,-62
2022-09-06T08:52:19.049Z,-65
2022-09-06T08:54:56.454Z,-62
2022-09-06T08:57:46.588Z,-63
2022-09-06T09:00:15.467Z,-62
2022-09-06T09:02:52.146Z,-61
2022-09-06T09:05:30.896Z,-69
2022-09-06T09:08:14.584Z,-68
2022-09-06T09:10:49.954Z,-68
2022-09-06T09:13:30.683Z,-68
2022-09-06T09:15:59.593Z,-67
2022-09-06T09:18:33.465Z,-70
2022-09-06T09:21:01.739Z,-69
2022-09-06T09:23:31.885Z,-70
2022-09-06T09:26:07.059Z,-70
2022-09-06T09:28:35.824Z,-70
2022-09-06T09:31:04.674Z,-65
2022-09-06T09:33:36.947Z,-63
2022-09-06T09:36:12.032Z,-65
2022-09-06T09:38:45.343Z,-65
2022-09-06T09:41:30.221Z,-66
2022-09-06T09:44:04.751Z,-66
2022-09-06T09:46:35.860Z,-75
2022-09-06T09:49:11.411Z,-70
2022-09-06T09:51:42.100Z,-68
2022-09-06T09:54:12.950Z,-67
2022-09-06T09:56:49.136Z,-67
2022-09-06T09:59:26.850Z,-71
2022-09-06T10:02:00.021Z,-69
2022-09-06T10:07:18.524Z,-69
2022-09-06T10:09:49.948Z,-68
2022-09-06T10:12:29.883Z,-67
2022-09-06T10:15:00.209Z,-67
2022-09-06T10:17:34.106Z,-66
2022-09-06T10:20:09.147Z,-67
2022-09-06T10:22:52.714Z,-66
2022-09-06T10:25:49.004Z,-68
2022-09-06T10:28:38.918Z,-68
2022-09-06T10:31:47.430Z,-66
2022-09-06T10:34:57.824Z,-68
2022-09-06T10:37:45.799Z,-67
2022-09-06T10:40:30.265Z,-67
2022-09-06T10:43:01.870Z,-68
2022-09-06T10:45:46.764Z,-67
2022-09-06T10:48:25.028Z,-67
2022-09-06T10:50:58.579Z,-68
2022-09-06T10:53:36.710Z,-68
2022-09-06T10:56:11.775Z,-67
2022-09-06T11:01:47.246Z,-68
2022-09-06T11:04:24.684Z,-68
2022-09-06T11:06:58.476Z,-67
2022-09-06T11:09:35.905Z,-68
2022-09-06T11:12:10.897Z,-69
2022-09-06T11:14:40.382Z,-69
2022-09-06T11:17:14.950Z,-68
2022-09-06T11:19:52.990Z,-68
2022-09-06T11:22:59.558Z,-66
2022-09-06T11:25:55.125Z,-70
2022-09-06T11:28:34.815Z,-67
2022-09-06T11:31:04.814Z,-67
2022-09-06T11:33:39.719Z,-70
2022-09-06T11:36:20.551Z,-67
2022-09-06T11:39:01.042Z,-66
2022-09-06T11:41:33.755Z,-66
2022-09-06T11:44:02.689Z,-70
2022-09-06T11:47:02.964Z,-69
2022-09-06T11:49:41.768Z,-66
2022-09-06T11:53:00.823Z,-64
2022-09-06T11:55:38.645Z,-68
2022-09-06T11:58:20.551Z,-66
2022-09-06T12:01:40.808Z,-65
2022-09-06T12:04:11.718Z,-70
2022-09-06T12:06:44.169Z,-68
2022-09-06T12:09:33.758Z,-67
2022-09-06T12:12:04.163Z,-66
2022-09-06T12:14:39.637Z,-80
2022-09-06T12:17:47.554Z,-79
2022-09-06T12:21:06.909Z,-68
2022-09-06T12:23:45.353Z,-74
2022-09-06T12:26:13.887Z,-68
2022-09-06T12:28:48.336Z,-70
2022-09-06T12:31:39.543Z,-67
2022-09-06T12:34:14.171Z,-70
2022-09-06T12:36:59.089Z,-70
2022-09-06T12:39:29.187Z,-66
2022-09-06T12:42:02.008Z,-64
2022-09-06T12:44:35.130Z,-65
2022-09-06T12:47:14.944Z,-67
2022-09-06T12:49:43.177Z,-69
2022-09-06T12:52:16.071Z,-68
2022-09-06T12:54:49.514Z,-70
2022-09-06T12:57:22.457Z,-68
2022-09-06T12:59:55.995Z,-69
2022-09-06T13:02:38.683Z,-68
2022-09-06T13:05:11.072Z,-65
2022-09-06T13:07:45.310Z,-64
2022-09-06T13:10:20.335Z,-64
2022-09-06T13:12:53.003Z,-65
2022-09-06T13:15:26.137Z,-63
2022-09-06T13:17:56.621Z,-63
2022-09-06T13:20:29.225Z,-82
2022-09-06T13:23:10.925Z,-78
2022-09-06T13:25:50.667Z,-66
2022-09-06T13:28:28.145Z,-66
2022-09-06T13:31:10.583Z,-67
2022-09-06T13:33:39.091Z,-67
2022-09-06T13:36:22.724Z,-61
2022-09-06T13:38:51.687Z,-61
2022-09-06T13:41:42.259Z,-61
2022-09-06T13:44:29.622Z,-62
2022-09-06T13:46:58.110Z,-65
2022-09-06T13:49:27.206Z,-69
2022-09-06T13:52:00.198Z,-68
2022-09-06T13:54:28.596Z,-67
2022-09-06T13:56:58.450Z,-68
2022-09-06T13:59:26.972Z,-67
2022-09-06T14:02:02.304Z,-65
2022-09-06T14:04:31.831Z,-64
2022-09-06T14:07:00.259Z,-63
2022-09-06T14:09:28.272Z,-64
2022-09-06T14:11:58.119Z,-64
2022-09-06T14:14:26.376Z,-67
2022-09-06T14:16:54.813Z,-67
2022-09-06T14:19:23.180Z,-66
2022-09-06T14:21:51.673Z,-65
2022-09-06T14:24:20.141Z,-66
2022-09-06T14:26:48.773Z,-64
2022-09-06T14:29:18.293Z,-67
2022-09-06T14:31:48.297Z,-66
2022-09-06T14:34:16.686Z,-66
2022-09-06T14:36:44.825Z,-67
2022-09-06T14:39:12.908Z,-67
2022-09-06T14:41:41.134Z,-65
2022-09-06T14:44:10.020Z,-66
2022-09-06T14:46:39.710Z,-65
2022-09-06T14:49:11.134Z,-66
2022-09-06T14:51:40.623Z,-66
2022-09-06T14:54:12.216Z,-65
2022-09-06T14:56:44.085Z,-67
2022-09-06T14:59:12.826Z,-66
2022-09-06T15:01:42.445Z,-66
2022-09-06T15:04:12.413Z,-66
2022-09-06T15:06:44.868Z,-67
2022-09-06T15:09:13.122Z,-66
2022-09-06T15:11:44.562Z,-66
2022-09-06T15:14:17.520Z,-65
2022-09-06T15:16:53.309Z,-66
2022-09-06T15:19:24.782Z,-66
2022-09-06T15:21:53.071Z,-66
2022-09-06T15:24:21.779Z,-66
2022-09-06T15:26:50.262Z,-65
2022-09-06T15:29:19.180Z,-64
2022-09-06T15:31:51.373Z,-66
2022-09-06T15:34:21.582Z,-66
2022-09-06T15:36:50.292Z,-67
2022-09-06T15:39:18.914Z,-66
2022-09-06T15:41:47.247Z,-65
2022-09-06T15:44:18.760Z,-66
2022-09-06T15:46:52.374Z,-65
2022-09-06T15:49:27.616Z,-66
2022-09-06T15:51:58.117Z,-65
2022-09-06T15:54:47.954Z,-66
2022-09-06T15:57:17.578Z,-67
2022-09-06T15:59:46.529Z,-66
2022-09-06T16:02:16.184Z,-66
2022-09-06T16:04:44.392Z,-66
2022-09-06T16:07:12.730Z,-67
2022-09-06T16:09:40.910Z,-66
2022-09-06T16:12:09.548Z,-67
2022-09-06T16:14:39.043Z,-69
2022-09-06T16:17:07.244Z,-67
2022-09-06T16:19:36.716Z,-66
2022-09-06T16:22:05.321Z,-67
2022-09-06T16:24:33.660Z,-68
2022-09-06T16:27:02.219Z,-67
2022-09-06T16:29:31.768Z,-67
2022-09-06T16:32:00.549Z,-67
2022-09-06T16:34:28.747Z,-67
2022-09-06T16:36:58.416Z,-65
2022-09-06T16:39:26.953Z,-66
2022-09-06T16:41:55.313Z,-66
2022-09-06T16:44:23.352Z,-66
2022-09-06T16:46:53.619Z,-65
2022-09-06T16:49:21.796Z,-67
2022-09-06T16:51:51.799Z,-66
2022-09-06T16:54:21.686Z,-66
2022-09-06T16:56:49.892Z,-66
2022-09-06T16:59:18.061Z,-66
2022-09-06T17:01:46.802Z,-66
2022-09-06T17:04:16.227Z,-66
2022-09-06T17:06:45.708Z,-66
2022-09-06T17:09:16.306Z,-66
2022-09-06T17:11:46.841Z,-66
2022-09-06T17:14:14.965Z,-66
2022-09-06T17:17:00.780Z,-67
2022-09-06T17:19:29.698Z,-67
2022-09-06T17:21:58.150Z,-65
2022-09-06T17:24:27.321Z,-66
2022-09-06T17:26:56.712Z,-66
2022-09-06T17:29:28.040Z,-66
2022-09-06T17:31:56.465Z,-69
2022-09-06T17:34:24.655Z,-71
2022-09-06T17:36:53.737Z,-67
2022-09-06T17:39:22.871Z,-67
2022-09-06T17:41:54.176Z,-69
2022-09-06T17:44:26.650Z,-66
2022-09-06T17:47:12.641Z,-70
2022-09-06T17:49:42.253Z,-70
2022-09-06T17:52:10.717Z,-68
2022-09-06T17:54:38.878Z,-66
2022-09-06T17:57:07.079Z,-68
2022-09-06T17:59:36.558Z,-69
2022-09-06T18:02:05.884Z,-69
2022-09-06T18:04:34.399Z,-71
2022-09-06T18:07:02.554Z,-70
2022-09-06T18:09:30.861Z,-70
2022-09-06T18:11:59.162Z,-69
2022-09-06T18:14:28.624Z,-68
2022-09-06T18:16:58.332Z,-67
2022-09-06T18:19:27.441Z,-67
2022-09-06T18:21:57.091Z,-68
2022-09-06T18:24:25.438Z,-67
2022-09-06T18:26:53.580Z,-69
2022-09-06T18:29:21.984Z,-68
2022-09-06T18:31:53.422Z,-67
2022-09-06T18:34:23.151Z,-67
2022-09-06T18:36:51.353Z,-69
2022-09-06T18:39:20.340Z,-68
2022-09-06T18:42:11.034Z,-69
2022-09-06T18:44:40.577Z,-72
2022-09-06T18:47:12.141Z,-71
2022-09-06T18:49:44.172Z,-69
2022-09-06T18:52:12.637Z,-71
2022-09-06T18:54:40.713Z,-70
2022-09-06T18:57:08.975Z,-67
2022-09-06T18:59:37.104Z,-66
2022-09-06T19:02:05.296Z,-66
2022-09-06T19:04:33.555Z,-73
2022-09-06T19:07:04.890Z,-71
2022-09-06T19:09:33.053Z,-65
2022-09-06T19:12:01.411Z,-66
2022-09-06T19:14:29.518Z,-65
2022-09-06T19:16:57.654Z,-71
2022-09-06T19:19:25.873Z,-70
2022-09-06T19:21:54.007Z,-70
2022-09-06T19:24:24.534Z,-70
2022-09-06T19:26:55.146Z,-71
2022-09-06T19:29:23.866Z,-68
2022-09-06T19:31:52.933Z,-70
2022-09-06T19:34:22.009Z,-66
2022-09-06T19:36:52.053Z,-68
2022-09-06T19:39:21.399Z,-67
2022-09-06T19:41:51.183Z,-67
2022-09-06T19:44:20.680Z,-64
2022-09-06T19:46:49.220Z,-64
2022-09-06T19:49:20.096Z,-64
2022-09-06T19:51:50.800Z,-65
2022-09-06T19:54:20.344Z,-65
2022-09-06T19:56:50.198Z,-65
2022-09-06T19:59:18.718Z,-65
2022-09-06T20:01:47.741Z,-70
2022-09-06T20:04:17.026Z,-67
2022-09-06T20:06:46.026Z,-68
2022-09-06T20:09:15.863Z,-68
2022-09-06T20:11:44.558Z,-69
2022-09-06T20:14:14.515Z,-66
2022-09-06T20:16:43.205Z,-66
2022-09-06T20:19:14.864Z,-68
2022-09-06T20:21:43.998Z,-70
2022-09-06T20:24:12.083Z,-68
2022-09-06T20:26:40.399Z,-69
2022-09-06T20:29:08.819Z,-68
2022-09-06T20:31:39.212Z,-70
2022-09-06T20:34:07.982Z,-68
2022-09-06T20:36:36.711Z,-71
2022-09-06T20:39:05.656Z,-67
2022-09-06T20:41:34.756Z,-67
2022-09-06T20:44:03.706Z,-69
2022-09-06T20:46:35.068Z,-68
2022-09-06T20:49:06.576Z,-67
2022-09-06T20:51:38.523Z,-67
2022-09-06T20:54:07.417Z,-67
2022-09-06T20:56:38.640Z,-66
2022-09-06T20:59:13.657Z,-64
2022-09-06T21:01:44.514Z,-64
2022-09-06T21:04:16.865Z,-65
2022-09-06T21:06:45.843Z,-65
2022-09-06T21:09:15.736Z,-66
2022-09-06T21:11:45.178Z,-65
2022-09-06T21:14:13.808Z,-66
2022-09-06T21:16:42.141Z,-66
2022-09-06T21:19:13.499Z,-71
2022-09-06T21:21:42.283Z,-70
2022-09-06T21:24:12.252Z,-70
2022-09-06T21:26:42.831Z,-68
2022-09-06T21:29:11.423Z,-68
2022-09-06T21:31:39.641Z,-67
2022-09-06T21:34:16.808Z,-62
2022-09-06T21:36:46.827Z,-67
2022-09-06T21:39:16.032Z,-68
2022-09-06T21:41:45.774Z,-66
2022-09-06T21:44:13.946Z,-65
2022-09-06T21:46:43.231Z,-66
2022-09-06T21:49:14.268Z,-67
2022-09-06T21:51:42.961Z,-67
2022-09-06T21:54:12.517Z,-67
2022-09-06T21:56:41.172Z,-66
2022-09-06T21:59:10.885Z,-66
2022-09-06T22:01:43.165Z,-66
2022-09-06T22:04:14.478Z,-67
2022-09-06T22:06:42.628Z,-67
2022-09-06T22:09:14.124Z,-66
2022-09-06T22:11:45.360Z,-66
2022-09-06T22:14:15.814Z,-66
2022-09-06T22:16:44.236Z,-65
2022-09-06T22:19:12.898Z,-66
2022-09-06T22:21:41.363Z,-66
2022-09-06T22:24:12.145Z,-67
2022-09-06T22:26:42.958Z,-68
2022-09-06T22:29:15.050Z,-67
2022-09-06T22:31:43.877Z,-68
2022-09-06T22:34:12.363Z,-66
2022-09-06T22:36:40.593Z,-67
2022-09-06T22:39:09.496Z,-68
2022-09-06T22:41:37.684Z,-67
2022-09-06T22:44:07.656Z,-65
2022-09-06T22:46:37.001Z,-65
2022-09-06T22:49:05.440Z,-67
2022-09-06T22:51:34.110Z,-65
2022-09-06T22:54:02.477Z,-65
2022-09-06T22:56:30.587Z,-66
2022-09-06T22:59:00.801Z,-66
2022-09-06T23:01:32.607Z,-65
2022-09-06T23:04:01.122Z,-66
2022-09-06T23:06:29.326Z,-65
2022-09-06T23:08:57.482Z,-67
2022-09-06T23:11:25.902Z,-66
2022-09-06T23:13:57.570Z,-64
2022-09-06T23:16:27.038Z,-66
2022-09-06T23:18:57.403Z,-66
2022-09-06T23:21:27.448Z,-66
2022-09-06T23:23:57.763Z,-66
2022-09-06T23:26:30.321Z,-65
2022-09-06T23:28:58.587Z,-66
2022-09-06T23:31:31.329Z,-66
2022-09-06T23:34:02.793Z,-65
2022-09-06T23:36:32.525Z,-67
2022-09-06T23:39:02.113Z,-65
2022-09-06T23:41:30.454Z,-65
2022-09-06T23:43:58.617Z,-67
2022-09-06T23:46:27.581Z,-66
2022-09-06T23:48:55.806Z,-66
2022-09-06T23:51:25.396Z,-67
2022-09-06T23:53:53.845Z,-66
2022-09-06T23:56:22.406Z,-66
2022-09-06T23:58:50.560Z,-65
